createdAt,value
2023-10-10T00:00:48.209Z,99.25
2023-10-10T00:02:20.522Z,99.93
2023-10-10T00:03:54.867Z,99.70
2023-10-10T00:05:37.585Z,100.00
2023-10-10T00:07:09.903Z,100.00
2023-10-10T00:08:42.114Z,99.39
2023-10-10T00:10:14.651Z,99.26
2023-10-10T00:11:49.712Z,99.43
2023-10-10T00:13:21.383Z,98.88
2023-10-10T00:14:54.434Z,99.35
2023-10-10T00:16:32.648Z,98.92
2023-10-10T00:18:11.324Z,99.28
2023-10-10T00:19:46.284Z,98.73
2023-10-10T00:21:29.798Z,97.82
2023-10-10T00:23:05.292Z,98.57
2023-10-10T00:24:37.047Z,98.29
2023-10-10T00:26:13.137Z,98.59
2023-10-10T00:27:45.061Z,99.08
2023-10-10T00:29:19.810Z,99.20
2023-10-10T00:30:51.610Z,98.97
2023-10-10T00:32:27.087Z,99.26
2023-10-10T00:33:59.503Z,98.96
2023-10-10T00:35:32.728Z,98.65
2023-10-10T00:37:12.248Z,98.94
2023-10-10T00:38:43.902Z,99.16
2023-10-10T00:40:26.603Z,98.71
2023-10-10T00:42:05.104Z,99.67
2023-10-10T00:43:38.049Z,99.41
2023-10-10T00:45:16.484Z,99.46
2023-10-10T00:46:52.546Z,99.96
2023-10-10T00:48:27.363Z,99.25
2023-10-10T00:50:00.298Z,99.68
2023-10-10T00:51:33.341Z,100.00
2023-10-10T00:53:09.427Z,99.59
2023-10-10T00:54:44.529Z,99.68
2023-10-10T00:56:16.629Z,98.68
2023-10-10T00:57:53.888Z,98.36
2023-10-10T00:59:43.914Z,98.25
2023-10-10T01:01:16.266Z,97.95
2023-10-10T01:02:54.986Z,97.60
2023-10-10T01:04:40.330Z,98.00
2023-10-10T01:06:27.711Z,98.59
2023-10-10T01:08:00.512Z,98.84
2023-10-10T01:09:35.008Z,98.33
2023-10-10T01:11:06.697Z,99.26
2023-10-10T01:12:40.512Z,99.34
2023-10-10T01:14:19.531Z,99.08
2023-10-10T01:15:51.267Z,99.86
2023-10-10T01:17:30.103Z,99.28
2023-10-10T01:19:02.874Z,99.07
2023-10-10T01:20:36.366Z,99.33
2023-10-10T01:22:23.551Z,98.88
2023-10-10T01:23:57.159Z,99.15
2023-10-10T01:25:34.934Z,98.68
2023-10-10T01:27:17.199Z,98.60
2023-10-10T01:28:48.882Z,98.36
2023-10-10T01:30:20.741Z,98.21
2023-10-10T01:31:53.380Z,98.18
2023-10-10T01:33:38.495Z,97.92
2023-10-10T01:35:17.478Z,97.80
2023-10-10T01:36:51.872Z,98.30
2023-10-10T01:38:36.842Z,97.95
2023-10-10T01:40:16.716Z,98.36
2023-10-10T01:41:51.831Z,98.69
2023-10-10T01:43:23.547Z,98.48
2023-10-10T01:44:56.039Z,98.04
2023-10-10T01:46:30.758Z,97.79
2023-10-10T01:48:09.376Z,97.77
2023-10-10T01:49:41.345Z,98.20
2023-10-10T01:51:16.295Z,97.91
2023-10-10T01:52:51.042Z,97.63
2023-10-10T01:54:23.441Z,97.42
2023-10-10T01:55:55.087Z,97.29
2023-10-10T01:57:27.633Z,98.20
2023-10-10T01:59:04.232Z,98.18
2023-10-10T02:00:36.915Z,97.40
2023-10-10T02:02:11.531Z,97.79
2023-10-10T02:03:43.754Z,98.19
2023-10-10T02:05:21.993Z,98.88
2023-10-10T02:06:57.961Z,99.41
2023-10-10T02:08:31.583Z,99.27
2023-10-10T02:10:18.609Z,98.82
2023-10-10T02:11:56.208Z,98.89
2023-10-10T02:13:28.276Z,98.38
2023-10-10T02:15:00.904Z,98.89
2023-10-10T02:16:37.234Z,98.99
2023-10-10T02:18:13.864Z,99.29
2023-10-10T02:19:45.524Z,98.66
2023-10-10T02:21:18.151Z,98.91
2023-10-10T02:22:50.297Z,99.19
2023-10-10T02:24:29.032Z,99.04
2023-10-10T02:26:04.786Z,97.96
2023-10-10T02:27:48.461Z,98.86
2023-10-10T02:29:40.404Z,98.37
2023-10-10T02:31:14.113Z,97.46
2023-10-10T02:32:48.001Z,98.29
2023-10-10T02:34:20.720Z,98.21
2023-10-10T02:35:56.582Z,98.29
2023-10-10T02:37:28.472Z,98.56
2023-10-10T02:39:18.527Z,98.83
2023-10-10T02:40:54.686Z,99.05
2023-10-10T02:42:26.681Z,98.77
2023-10-10T02:44:11.038Z,97.70
2023-10-10T02:45:46.258Z,98.03
2023-10-10T02:47:31.993Z,99.17
2023-10-10T02:49:10.746Z,99.51
2023-10-10T02:50:42.464Z,100.00
2023-10-10T02:52:15.932Z,100.00
2023-10-10T02:53:48.044Z,100.00
2023-10-10T02:55:34.503Z,100.00
2023-10-10T02:57:27.072Z,99.84
2023-10-10T02:58:59.011Z,98.75
2023-10-10T03:00:30.925Z,98.41
2023-10-10T03:02:10.943Z,98.62
2023-10-10T03:03:43.276Z,99.01
2023-10-10T03:05:21.442Z,99.53
2023-10-10T03:06:53.194Z,99.07
2023-10-10T03:08:35.971Z,97.59
2023-10-10T03:10:08.678Z,98.15
2023-10-10T03:11:54.938Z,98.48
2023-10-10T03:13:29.624Z,98.81
2023-10-10T03:15:13.833Z,99.18
2023-10-10T03:16:47.004Z,99.61
2023-10-10T03:18:29.322Z,98.82
2023-10-10T03:20:24.022Z,98.55
2023-10-10T03:22:15.758Z,98.01
2023-10-10T03:24:08.581Z,98.08
2023-10-10T03:26:00.692Z,99.28
2023-10-10T03:27:55.909Z,99.40
2023-10-10T03:29:47.916Z,99.81
2023-10-10T03:31:19.600Z,99.02
2023-10-10T03:33:10.776Z,98.71
2023-10-10T03:34:46.186Z,99.08
2023-10-10T03:36:20.507Z,99.50
2023-10-10T03:38:05.921Z,98.93
2023-10-10T03:39:50.140Z,98.90
2023-10-10T03:41:24.689Z,98.61
2023-10-10T03:43:16.842Z,98.79
2023-10-10T03:45:08.546Z,98.66
2023-10-10T03:46:59.112Z,98.32
2023-10-10T03:48:49.240Z,98.30
2023-10-10T03:50:39.596Z,98.47
2023-10-10T03:52:30.030Z,98.91
2023-10-10T03:54:20.381Z,99.15
2023-10-10T03:56:15.234Z,99.09
2023-10-10T03:58:05.707Z,98.59
2023-10-10T03:59:56.215Z,98.98
2023-10-10T04:01:47.913Z,98.96
2023-10-10T04:03:38.317Z,98.50
2023-10-10T04:05:28.690Z,99.01
2023-10-10T04:07:19.012Z,98.13
2023-10-10T04:09:09.407Z,98.31
2023-10-10T04:11:05.149Z,97.86
2023-10-10T04:12:55.469Z,97.62
2023-10-10T04:14:45.982Z,98.10
2023-10-10T04:16:36.566Z,98.51
2023-10-10T04:18:28.222Z,98.42
2023-10-10T04:20:18.717Z,98.54
2023-10-10T04:22:09.171Z,99.00
2023-10-10T04:23:59.646Z,99.61
2023-10-10T04:25:49.962Z,98.50
2023-10-10T04:27:40.409Z,98.13
2023-10-10T04:29:30.890Z,97.77
2023-10-10T04:31:24.425Z,97.88
2023-10-10T04:33:14.905Z,97.79
2023-10-10T04:35:06.802Z,99.14
2023-10-10T04:36:57.122Z,98.93
2023-10-10T04:38:47.531Z,98.06
2023-10-10T04:40:37.952Z,97.34
2023-10-10T04:42:28.341Z,97.52
2023-10-10T04:44:18.861Z,98.23
2023-10-10T04:46:09.119Z,98.38
2023-10-10T04:47:59.692Z,97.93
2023-10-10T04:49:49.820Z,99.04
2023-10-10T04:51:43.535Z,98.45
2023-10-10T04:53:34.084Z,99.27
2023-10-10T04:55:25.132Z,98.37
2023-10-10T04:57:15.434Z,98.29
2023-10-10T04:59:26.841Z,99.04
2023-10-10T05:01:24.881Z,99.20
2023-10-10T05:03:15.500Z,99.68
2023-10-10T05:05:05.684Z,98.96
2023-10-10T05:06:57.374Z,99.30
2023-10-10T05:08:47.838Z,98.62
2023-10-10T05:10:38.199Z,99.08
2023-10-10T05:12:28.605Z,98.98
2023-10-10T05:14:19.046Z,99.47
2023-10-10T05:16:09.393Z,98.87
2023-10-10T05:18:00.041Z,99.88
2023-10-10T05:19:50.485Z,100.00
2023-10-10T05:21:41.061Z,100.00
2023-10-10T05:23:35.662Z,99.72
2023-10-10T05:25:14.202Z,100.00
2023-10-10T05:26:48.730Z,100.00
2023-10-10T05:28:21.222Z,100.00
2023-10-10T05:29:52.904Z,100.00
2023-10-10T05:31:24.646Z,100.00
2023-10-10T05:33:06.457Z,100.00
2023-10-10T05:34:38.521Z,100.00
2023-10-10T05:36:10.359Z,100.00
2023-10-10T05:37:42.324Z,100.00
2023-10-10T05:39:24.430Z,100.00
2023-10-10T05:40:59.459Z,100.00
2023-10-10T05:42:35.236Z,100.00
2023-10-10T05:44:09.092Z,100.00
2023-10-10T05:45:41.106Z,100.00
2023-10-10T05:47:12.761Z,100.00
2023-10-10T05:48:45.540Z,100.00
2023-10-10T05:50:19.626Z,100.00
2023-10-10T05:51:53.055Z,100.00
2023-10-10T05:53:25.795Z,100.00
2023-10-10T05:54:58.850Z,100.00
2023-10-10T05:56:31.773Z,100.00
2023-10-10T05:58:03.721Z,100.00
2023-10-10T05:59:35.650Z,100.00
2023-10-10T06:01:09.105Z,100.00
2023-10-10T06:02:43.326Z,100.00
2023-10-10T06:04:15.293Z,100.00
2023-10-10T06:05:47.216Z,100.00
2023-10-10T06:07:18.983Z,100.00
2023-10-10T06:09:01.290Z,100.00
2023-10-10T06:10:34.938Z,100.00
2023-10-10T06:12:12.643Z,100.00
2023-10-10T06:13:46.866Z,100.00
2023-10-10T06:15:19.106Z,100.00
2023-10-10T06:16:53.516Z,100.00
2023-10-10T06:18:25.444Z,100.00
2023-10-10T06:19:58.267Z,100.00
2023-10-10T06:21:30.789Z,100.00
2023-10-10T06:23:03.513Z,100.00
2023-10-10T06:24:35.387Z,100.00
2023-10-10T06:26:08.564Z,100.00
2023-10-10T06:27:42.167Z,100.00
2023-10-10T06:29:16.847Z,100.00
2023-10-10T06:30:49.517Z,100.00
2023-10-10T06:32:22.093Z,100.00
2023-10-10T06:33:59.128Z,100.00
2023-10-10T06:35:36.378Z,100.00
2023-10-10T06:37:11.569Z,100.00
2023-10-10T06:38:43.306Z,100.00
2023-10-10T06:40:15.394Z,100.00
2023-10-10T06:41:51.286Z,100.00
2023-10-10T06:43:23.624Z,100.00
2023-10-10T06:44:55.420Z,100.00
2023-10-10T06:46:33.395Z,100.00
2023-10-10T06:48:05.894Z,100.00
2023-10-10T06:49:58.410Z,100.00
2023-10-10T06:51:31.911Z,100.00
2023-10-10T06:53:05.081Z,100.00
2023-10-10T06:54:36.991Z,100.00
2023-10-10T06:56:18.892Z,100.00
2023-10-10T06:58:00.537Z,100.00
2023-10-10T06:59:32.492Z,100.00
2023-10-10T07:01:05.981Z,100.00
2023-10-10T07:02:41.790Z,100.00
2023-10-10T07:04:14.619Z,100.00
2023-10-10T07:05:46.544Z,100.00
2023-10-10T07:07:20.036Z,100.00
2023-10-10T07:09:11.656Z,100.00
2023-10-10T07:10:45.842Z,100.00
2023-10-10T07:12:17.699Z,100.00
2023-10-10T07:13:59.736Z,100.00
2023-10-10T07:15:35.965Z,100.00
2023-10-10T07:17:12.740Z,100.00
2023-10-10T07:18:44.712Z,100.00
2023-10-10T07:20:16.651Z,100.00
2023-10-10T07:21:49.129Z,100.00
2023-10-10T07:23:24.034Z,100.00
2023-10-10T07:25:08.235Z,100.00
2023-10-10T07:26:43.139Z,100.00
2023-10-10T07:28:15.382Z,100.00
2023-10-10T07:29:48.410Z,100.00
2023-10-10T07:31:22.210Z,100.00
2023-10-10T07:32:54.147Z,100.00
2023-10-10T07:34:36.281Z,100.00
2023-10-10T07:36:14.033Z,100.00
2023-10-10T07:37:45.878Z,100.00
2023-10-10T07:39:37.477Z,100.00
2023-10-10T07:41:09.935Z,100.00
2023-10-10T07:42:41.626Z,100.00
2023-10-10T07:44:13.399Z,100.00
2023-10-10T07:45:46.468Z,100.00
2023-10-10T07:47:18.110Z,100.00
2023-10-10T07:48:55.334Z,100.00
2023-10-10T07:50:35.897Z,100.00
2023-10-10T07:52:17.135Z,100.00
2023-10-10T07:53:59.689Z,100.00
2023-10-10T07:55:51.834Z,100.00
2023-10-10T07:57:23.688Z,100.00
2023-10-10T07:58:58.064Z,100.00
2023-10-10T08:00:40.126Z,100.00
2023-10-10T08:02:31.996Z,100.00
2023-10-10T08:04:06.407Z,100.00
2023-10-10T08:05:38.137Z,100.00
2023-10-10T08:07:10.068Z,100.00
2023-10-10T08:08:42.032Z,100.00
2023-10-10T08:10:39.242Z,100.00
2023-10-10T08:12:11.273Z,100.00
2023-10-10T08:13:49.804Z,100.00
2023-10-10T08:15:21.923Z,100.00
2023-10-10T08:17:03.242Z,100.00
2023-10-10T08:18:53.822Z,100.00
2023-10-10T08:20:44.999Z,100.00
2023-10-10T08:22:16.905Z,100.00
2023-10-10T08:23:48.608Z,100.00
2023-10-10T08:25:20.330Z,100.00
2023-10-10T08:26:53.156Z,100.00
2023-10-10T08:28:25.111Z,100.00
2023-10-10T08:29:56.743Z,100.00
2023-10-10T08:31:28.418Z,100.00
2023-10-10T08:33:00.404Z,100.00
2023-10-10T08:34:39.445Z,100.00
2023-10-10T08:36:11.082Z,100.00
2023-10-10T08:37:42.692Z,100.00
2023-10-10T08:39:17.379Z,100.00
2023-10-10T08:40:58.283Z,100.00
2023-10-10T08:42:29.944Z,100.00
2023-10-10T08:44:05.254Z,100.00
2023-10-10T08:45:41.189Z,100.00
2023-10-10T08:47:20.244Z,100.00
2023-10-10T08:48:52.435Z,100.00
2023-10-10T08:50:25.576Z,100.00
2023-10-10T08:52:02.140Z,100.00
2023-10-10T08:53:36.587Z,100.00
2023-10-10T08:55:11.424Z,100.00
2023-10-10T08:56:43.757Z,100.00
2023-10-10T08:58:15.425Z,100.00
2023-10-10T08:59:53.658Z,100.00
2023-10-10T09:01:25.464Z,100.00
2023-10-10T09:02:57.227Z,100.00
2023-10-10T09:04:31.945Z,100.00
2023-10-10T09:06:20.229Z,100.00
2023-10-10T09:07:54.237Z,100.00
2023-10-10T09:09:34.284Z,100.00
2023-10-10T09:11:10.812Z,100.00
2023-10-10T09:13:03.316Z,100.00
2023-10-10T09:14:40.685Z,100.00
2023-10-10T09:16:14.837Z,100.00
2023-10-10T09:17:47.239Z,100.00
2023-10-10T09:19:19.137Z,100.00
2023-10-10T09:20:50.848Z,100.00
2023-10-10T09:22:35.159Z,100.00
2023-10-10T09:24:27.244Z,100.00
2023-10-10T09:26:30.976Z,100.00
2023-10-10T09:28:07.608Z,100.00
2023-10-10T09:29:48.268Z,100.00
2023-10-10T09:31:28.079Z,100.00
2023-10-10T09:33:01.760Z,100.00
2023-10-10T09:34:42.225Z,100.00
2023-10-10T09:36:17.329Z,100.00
2023-10-10T09:37:50.692Z,100.00
2023-10-10T09:39:40.002Z,100.00
2023-10-10T09:41:12.237Z,100.00
2023-10-10T09:42:54.130Z,100.00
2023-10-10T09:44:26.204Z,100.00
2023-10-10T09:47:57.680Z,100.00
2023-10-10T09:49:53.066Z,100.00
2023-10-10T09:51:44.185Z,100.00
2023-10-10T09:53:24.394Z,100.00
2023-10-10T09:54:56.859Z,100.00
2023-10-10T09:56:30.369Z,100.00
2023-10-10T09:58:02.779Z,100.00
2023-10-10T09:59:38.680Z,100.00
2023-10-10T10:01:20.112Z,100.00
2023-10-10T10:02:58.020Z,100.00
2023-10-10T10:04:38.311Z,100.00
2023-10-10T10:06:22.962Z,100.00
2023-10-10T10:08:00.492Z,100.00
2023-10-10T10:09:48.223Z,100.00
2023-10-10T10:11:27.185Z,100.00
2023-10-10T10:13:15.199Z,100.00
2023-10-10T10:14:51.642Z,100.00
2023-10-10T10:16:33.768Z,100.00
2023-10-10T10:18:19.645Z,100.00
2023-10-10T10:19:51.401Z,100.00
2023-10-10T10:21:31.668Z,100.00
2023-10-10T10:23:03.662Z,100.00
2023-10-10T10:24:53.931Z,100.00
2023-10-10T10:26:33.672Z,100.00
2023-10-10T10:28:12.295Z,100.00
2023-10-10T10:29:55.050Z,100.00
2023-10-10T10:31:29.982Z,100.00
2023-10-10T10:33:01.912Z,100.00
2023-10-10T10:34:36.208Z,100.00
2023-10-10T10:36:07.912Z,100.00
2023-10-10T10:37:40.889Z,100.00
2023-10-10T10:39:34.646Z,100.00
2023-10-10T10:41:09.412Z,100.00
2023-10-10T10:42:43.214Z,100.00
2023-10-10T10:44:28.330Z,100.00
2023-10-10T10:46:28.770Z,100.00
2023-10-10T10:48:01.298Z,100.00
2023-10-10T10:49:38.802Z,100.00
2023-10-10T10:51:33.810Z,100.00
2023-10-10T10:53:09.290Z,100.00
2023-10-10T10:54:44.251Z,100.00
2023-10-10T10:56:17.261Z,100.00
2023-10-10T10:57:50.887Z,100.00
2023-10-10T10:59:22.913Z,100.00
2023-10-10T11:01:00.609Z,100.00
2023-10-10T11:02:32.522Z,100.00
2023-10-10T11:04:06.726Z,100.00
2023-10-10T11:05:38.958Z,99.84
2023-10-10T11:07:28.701Z,99.19
2023-10-10T11:09:24.712Z,97.47
2023-10-10T11:10:56.386Z,95.03
2023-10-10T11:12:38.072Z,96.00
2023-10-10T11:14:19.915Z,94.56
2023-10-10T11:15:54.884Z,93.89
2023-10-10T11:17:26.579Z,93.07
2023-10-10T11:18:58.493Z,93.39
2023-10-10T11:20:31.083Z,91.65
2023-10-10T11:22:06.610Z,91.95
2023-10-10T11:23:43.288Z,92.20
2023-10-10T11:25:23.547Z,89.91
2023-10-10T11:27:07.909Z,89.83
2023-10-10T11:28:48.768Z,89.61
2023-10-10T11:30:25.706Z,88.86
2023-10-10T11:32:07.659Z,88.48
2023-10-10T11:34:12.090Z,87.82
2023-10-10T11:35:47.940Z,89.98
2023-10-10T11:37:25.457Z,88.86
2023-10-10T11:39:15.607Z,87.87
2023-10-10T11:40:53.511Z,88.01
2023-10-10T11:42:29.882Z,87.01
2023-10-10T11:44:03.977Z,86.47
2023-10-10T11:45:52.294Z,86.89
2023-10-10T11:47:27.723Z,85.99
2023-10-10T11:49:01.225Z,86.29
2023-10-10T11:50:44.477Z,87.05
2023-10-10T11:52:19.939Z,88.29
2023-10-10T11:53:55.732Z,85.03
2023-10-10T11:55:28.025Z,85.46
2023-10-10T11:57:01.031Z,85.02
2023-10-10T11:58:38.749Z,84.20
2023-10-10T12:00:26.538Z,84.30
2023-10-10T12:02:08.833Z,84.40
2023-10-10T12:03:40.748Z,81.05
2023-10-10T12:05:31.058Z,81.99
2023-10-10T12:07:06.449Z,80.16
2023-10-10T12:08:39.462Z,79.88
2023-10-10T12:10:13.217Z,79.45
2023-10-10T12:11:44.965Z,80.61
2023-10-10T12:13:28.530Z,81.05
2023-10-10T12:15:01.855Z,80.46
2023-10-10T12:16:35.937Z,80.54
2023-10-10T12:18:10.716Z,79.50
2023-10-10T12:19:46.523Z,78.39
2023-10-10T12:21:22.481Z,79.27
2023-10-10T12:22:54.701Z,77.82
2023-10-10T12:24:26.784Z,78.00
2023-10-10T12:26:00.419Z,78.58
2023-10-10T12:27:32.075Z,77.71
2023-10-10T12:29:03.806Z,76.43
2023-10-10T12:30:35.499Z,75.53
2023-10-10T12:32:20.057Z,75.13
2023-10-10T12:33:55.038Z,75.20
2023-10-10T12:35:27.906Z,76.60
2023-10-10T12:37:02.717Z,75.08
2023-10-10T12:38:34.606Z,73.63
2023-10-10T12:40:10.337Z,75.75
2023-10-10T12:41:47.600Z,74.28
2023-10-10T12:43:19.614Z,73.90
2023-10-10T12:44:51.310Z,74.84
2023-10-10T12:46:23.155Z,74.00
2023-10-10T12:47:58.391Z,73.31
2023-10-10T12:49:30.218Z,73.99
2023-10-10T12:51:02.650Z,73.68
2023-10-10T12:52:44.547Z,73.36
2023-10-10T12:54:18.946Z,74.35
2023-10-10T12:55:53.460Z,74.09
2023-10-10T12:57:25.225Z,74.40
2023-10-10T12:59:19.227Z,74.82
2023-10-10T13:00:57.665Z,74.76
2023-10-10T13:02:29.555Z,74.99
2023-10-10T13:04:08.998Z,75.28
2023-10-10T13:05:40.985Z,75.42
2023-10-10T13:07:14.142Z,75.69
2023-10-10T13:08:50.347Z,76.21
2023-10-10T13:10:27.749Z,75.49
2023-10-10T13:12:03.749Z,73.10
2023-10-10T13:13:46.379Z,73.63
2023-10-10T13:15:28.977Z,72.15
2023-10-10T13:17:21.664Z,72.59
2023-10-10T13:18:54.524Z,71.62
2023-10-10T13:20:27.518Z,70.92
2023-10-10T13:21:59.608Z,69.14
2023-10-10T13:23:31.993Z,68.93
2023-10-10T13:25:10.597Z,68.88
2023-10-10T13:26:43.379Z,68.85
2023-10-10T13:28:18.568Z,70.25
2023-10-10T13:29:50.270Z,69.23
2023-10-10T13:31:30.510Z,68.24
2023-10-10T13:33:02.504Z,69.60
2023-10-10T13:34:38.260Z,68.82
2023-10-10T13:36:13.154Z,68.97
2023-10-10T13:37:45.056Z,69.24
2023-10-10T13:39:17.241Z,66.90
2023-10-10T13:40:50.347Z,66.51
2023-10-10T13:42:22.337Z,67.09
2023-10-10T13:43:53.964Z,64.86
2023-10-10T13:45:29.302Z,65.11
2023-10-10T13:47:01.369Z,67.13
2023-10-10T13:48:33.214Z,66.04
2023-10-10T13:50:29.585Z,65.91
2023-10-10T13:52:05.853Z,66.58
2023-10-10T13:53:40.794Z,64.52
2023-10-10T13:55:12.773Z,65.00
2023-10-10T13:56:45.100Z,67.40
2023-10-10T13:58:18.154Z,65.85
2023-10-10T13:59:50.613Z,66.07
2023-10-10T14:01:37.854Z,67.16
2023-10-10T14:03:10.434Z,68.95
2023-10-10T14:04:49.908Z,68.90
2023-10-10T14:06:23.626Z,67.79
2023-10-10T14:07:56.596Z,67.40
2023-10-10T14:09:42.505Z,66.13
2023-10-10T14:11:23.576Z,67.64
2023-10-10T14:13:03.420Z,68.26
2023-10-10T14:14:46.138Z,69.26
2023-10-10T14:16:18.029Z,69.98
2023-10-10T14:17:50.549Z,69.99
2023-10-10T14:19:28.366Z,71.00
2023-10-10T14:21:08.898Z,72.38
2023-10-10T14:22:49.849Z,70.96
2023-10-10T14:24:32.107Z,70.32
2023-10-10T14:26:20.106Z,69.62
2023-10-10T14:27:51.885Z,70.48
2023-10-10T14:29:23.715Z,70.41
2023-10-10T14:30:58.275Z,71.08
2023-10-10T14:32:38.206Z,71.11
2023-10-10T14:34:13.030Z,71.64
2023-10-10T14:35:45.388Z,72.39
2023-10-10T14:37:33.978Z,70.44
2023-10-10T14:39:09.606Z,71.59
2023-10-10T14:40:42.908Z,71.41
2023-10-10T14:42:15.262Z,71.28
2023-10-10T14:43:50.266Z,71.53
2023-10-10T14:45:29.792Z,71.62
2023-10-10T14:47:05.477Z,72.31
2023-10-10T14:48:37.876Z,72.68
2023-10-10T14:50:13.882Z,72.35
2023-10-10T14:51:49.696Z,73.02
2023-10-10T14:53:23.861Z,73.51
2023-10-10T14:54:55.624Z,73.32
2023-10-10T14:56:36.790Z,73.00
2023-10-10T14:58:12.506Z,72.49
2023-10-10T14:59:44.300Z,72.87
2023-10-10T15:01:19.333Z,73.77
2023-10-10T15:02:54.430Z,73.85
2023-10-10T15:04:29.750Z,74.65
2023-10-10T15:06:07.388Z,74.78
2023-10-10T15:07:43.118Z,75.54
2023-10-10T15:09:15.819Z,74.17
2023-10-10T15:10:47.931Z,75.06
2023-10-10T15:12:21.027Z,73.43
2023-10-10T15:13:55.383Z,75.33
2023-10-10T15:15:27.119Z,75.74
2023-10-10T15:16:59.657Z,75.70
2023-10-10T15:18:32.004Z,76.04
2023-10-10T15:20:07.268Z,77.64
2023-10-10T15:21:39.462Z,77.39
2023-10-10T15:23:11.364Z,76.03
2023-10-10T15:24:43.481Z,74.81
2023-10-10T15:26:21.741Z,75.38
2023-10-10T15:27:55.776Z,76.55
2023-10-10T15:29:28.025Z,77.18
2023-10-10T15:31:00.037Z,77.21
2023-10-10T15:32:41.253Z,77.49
2023-10-10T15:34:14.926Z,74.81
2023-10-10T15:35:50.944Z,75.39
2023-10-10T15:37:27.915Z,76.04
2023-10-10T15:39:05.158Z,76.87
2023-10-10T15:40:40.795Z,77.29
2023-10-10T15:42:12.491Z,77.98
2023-10-10T15:43:48.190Z,78.93
2023-10-10T15:45:23.101Z,78.41
2023-10-10T15:46:59.747Z,78.98
2023-10-10T15:48:31.551Z,79.17
2023-10-10T15:50:03.811Z,79.09
2023-10-10T15:51:39.160Z,79.50
2023-10-10T15:53:13.277Z,79.55
2023-10-10T15:54:45.363Z,80.08
2023-10-10T15:56:17.119Z,81.30
2023-10-10T15:57:49.177Z,82.54
2023-10-10T15:59:22.488Z,82.59
2023-10-10T16:00:58.891Z,79.82
2023-10-10T16:02:32.182Z,80.33
2023-10-10T16:04:14.037Z,79.78
2023-10-10T16:05:46.718Z,80.64
2023-10-10T16:07:18.568Z,80.43
2023-10-10T16:08:50.877Z,79.85
2023-10-10T16:10:22.742Z,80.60
2023-10-10T16:11:54.471Z,80.55
2023-10-10T16:13:26.248Z,81.44
2023-10-10T16:15:01.382Z,82.68
2023-10-10T16:16:33.231Z,84.20
2023-10-10T16:18:07.567Z,84.71
2023-10-10T16:19:43.153Z,85.56
2023-10-10T16:21:17.856Z,85.54
2023-10-10T16:22:49.561Z,85.50
2023-10-10T16:24:21.685Z,85.33
2023-10-10T16:25:53.322Z,85.62
2023-10-10T16:27:25.164Z,85.79
2023-10-10T16:28:58.394Z,85.78
2023-10-10T16:30:31.440Z,85.82
2023-10-10T16:32:08.280Z,86.16
2023-10-10T16:33:40.599Z,86.83
2023-10-10T16:35:12.599Z,87.58
2023-10-10T16:36:46.850Z,88.14
2023-10-10T16:38:23.330Z,88.31
2023-10-10T16:39:55.230Z,89.29
2023-10-10T16:41:26.952Z,90.22
2023-10-10T16:42:58.615Z,90.29
2023-10-10T16:44:30.368Z,90.18
2023-10-10T16:46:03.886Z,90.09
2023-10-10T16:47:37.973Z,89.93
2023-10-10T16:49:09.889Z,90.48
2023-10-10T16:50:43.098Z,90.21
2023-10-10T16:52:14.806Z,90.54
2023-10-10T16:53:46.609Z,90.49
2023-10-10T16:55:18.897Z,90.48
2023-10-10T16:56:50.593Z,90.84
2023-10-10T16:58:23.864Z,91.29
2023-10-10T16:59:57.587Z,91.31
2023-10-10T17:01:31.070Z,90.71
2023-10-10T17:03:02.787Z,91.32
2023-10-10T17:04:34.718Z,90.71
2023-10-10T17:06:09.582Z,90.23
2023-10-10T17:07:41.574Z,91.51
2023-10-10T17:09:14.700Z,91.48
2023-10-10T17:10:48.512Z,91.23
2023-10-10T17:12:20.447Z,91.54
2023-10-10T17:13:52.267Z,91.60
2023-10-10T17:15:23.921Z,91.21
2023-10-10T17:16:56.899Z,91.33
2023-10-10T17:18:28.926Z,91.10
2023-10-10T17:20:00.980Z,91.42
2023-10-10T17:21:33.316Z,92.04
2023-10-10T17:23:05.254Z,91.37
2023-10-10T17:24:36.966Z,91.60
2023-10-10T17:26:09.387Z,91.31
2023-10-10T17:27:41.396Z,90.98
2023-10-10T17:29:13.186Z,91.35
2023-10-10T17:30:47.302Z,91.58
2023-10-10T17:32:20.272Z,92.29
2023-10-10T17:33:52.002Z,91.84
2023-10-10T17:35:23.819Z,91.92
2023-10-10T17:36:58.915Z,91.86
2023-10-10T17:38:30.719Z,92.44
2023-10-10T17:40:02.666Z,92.40
2023-10-10T17:41:36.063Z,92.69
2023-10-10T17:43:10.837Z,92.42
2023-10-10T17:44:42.534Z,91.66
2023-10-10T17:46:14.931Z,91.50
2023-10-10T17:47:48.297Z,91.43
2023-10-10T17:49:21.078Z,91.06
2023-10-10T17:50:52.698Z,90.50
2023-10-10T17:52:24.954Z,91.18
2023-10-10T17:53:56.680Z,91.61
2023-10-10T17:55:28.350Z,91.25
2023-10-10T17:57:00.069Z,91.51
2023-10-10T17:58:31.687Z,91.03
2023-10-10T18:00:14.407Z,91.62
2023-10-10T18:01:46.184Z,92.56
2023-10-10T18:03:20.465Z,91.82
2023-10-10T18:04:52.579Z,92.16
2023-10-10T18:06:24.939Z,91.83
2023-10-10T18:07:59.244Z,92.01
2023-10-10T18:09:33.518Z,92.14
2023-10-10T18:11:05.444Z,92.19
2023-10-10T18:12:38.119Z,92.66
2023-10-10T18:14:09.845Z,92.47
2023-10-10T18:15:42.048Z,93.04
2023-10-10T18:17:15.903Z,93.44
2023-10-10T18:18:53.009Z,93.05
2023-10-10T18:20:25.364Z,93.35
2023-10-10T18:21:57.191Z,92.94
2023-10-10T18:23:29.572Z,92.84
2023-10-10T18:25:01.436Z,92.07
2023-10-10T18:26:38.306Z,91.64
2023-10-10T18:28:10.003Z,92.28
2023-10-10T18:29:41.653Z,92.06
2023-10-10T18:31:13.753Z,92.07
2023-10-10T18:32:45.592Z,92.21
2023-10-10T18:34:18.848Z,92.15
2023-10-10T18:35:50.543Z,91.67
2023-10-10T18:37:24.896Z,91.65
2023-10-10T18:38:58.899Z,91.45
2023-10-10T18:40:31.317Z,92.09
2023-10-10T18:42:05.508Z,92.32
2023-10-10T18:43:37.280Z,92.99
2023-10-10T18:45:13.659Z,92.69
2023-10-10T18:46:45.574Z,92.80
2023-10-10T18:48:18.083Z,92.34
2023-10-10T18:49:51.274Z,92.75
2023-10-10T18:51:23.577Z,92.49
2023-10-10T18:52:57.439Z,92.29
2023-10-10T18:54:31.787Z,92.11
2023-10-10T18:56:06.542Z,92.54
2023-10-10T18:57:39.287Z,91.82
2023-10-10T18:59:12.547Z,92.14
2023-10-10T19:00:44.281Z,91.94
2023-10-10T19:02:16.253Z,92.13
2023-10-10T19:03:48.423Z,91.77
2023-10-10T19:05:21.615Z,91.79
2023-10-10T19:06:54.294Z,92.50
2023-10-10T19:08:26.126Z,92.77
2023-10-10T19:10:01.160Z,92.84
2023-10-10T19:11:32.925Z,93.14
2023-10-10T19:13:06.442Z,92.62
2023-10-10T19:14:39.488Z,93.13
2023-10-10T19:16:13.117Z,92.41
2023-10-10T19:17:46.047Z,92.76
2023-10-10T19:19:20.907Z,92.60
2023-10-10T19:20:54.071Z,93.00
2023-10-10T19:22:25.788Z,93.48
2023-10-10T19:23:57.511Z,93.33
2023-10-10T19:25:30.684Z,93.33
2023-10-10T19:27:02.484Z,93.35
2023-10-10T19:28:34.119Z,93.19
2023-10-10T19:30:07.391Z,92.67
2023-10-10T19:31:42.253Z,93.08
2023-10-10T19:33:16.435Z,93.37
2023-10-10T19:34:49.484Z,92.84
2023-10-10T19:36:22.472Z,93.57
2023-10-10T19:37:56.468Z,93.43
2023-10-10T19:39:28.310Z,93.34
2023-10-10T19:41:07.465Z,93.16
2023-10-10T19:42:40.880Z,93.15
2023-10-10T19:44:16.132Z,94.04
2023-10-10T19:45:48.197Z,95.14
2023-10-10T19:47:20.844Z,93.89
2023-10-10T19:48:52.663Z,93.25
2023-10-10T19:50:25.412Z,93.19
2023-10-10T19:51:58.504Z,94.18
2023-10-10T19:53:30.418Z,94.37
2023-10-10T19:55:16.992Z,93.46
2023-10-10T19:56:52.858Z,94.43
2023-10-10T19:58:24.553Z,93.97
2023-10-10T19:59:56.280Z,94.06
2023-10-10T20:01:28.526Z,93.64
2023-10-10T20:03:00.444Z,94.04
2023-10-10T20:04:32.229Z,94.58
2023-10-10T20:06:04.369Z,94.60
2023-10-10T20:07:37.550Z,94.15
2023-10-10T20:09:11.945Z,93.99
2023-10-10T20:10:48.343Z,95.16
2023-10-10T20:12:20.022Z,94.55
2023-10-10T20:13:52.776Z,94.26
2023-10-10T20:15:25.509Z,93.66
2023-10-10T20:16:57.956Z,95.14
2023-10-10T20:18:29.939Z,94.25
2023-10-10T20:20:04.446Z,94.27
2023-10-10T20:21:38.065Z,94.80
2023-10-10T20:23:11.113Z,95.46
2023-10-10T20:24:42.962Z,96.33
2023-10-10T20:26:20.392Z,95.41
2023-10-10T20:27:52.432Z,94.77
2023-10-10T20:29:27.127Z,94.19
2023-10-10T20:30:58.809Z,94.02
2023-10-10T20:32:32.999Z,94.94
2023-10-10T20:34:04.948Z,95.64
2023-10-10T20:35:36.624Z,95.28
2023-10-10T20:37:11.186Z,95.94
2023-10-10T20:38:45.015Z,94.92